createdAt,value
2023-02-16T00:01:26.765Z,2.55
2023-02-16T00:03:58.064Z,2.58
2023-02-16T00:06:27.061Z,2.52
2023-02-16T00:08:57.878Z,2.51
2023-02-16T00:11:49.289Z,2.46
2023-02-16T00:14:17.618Z,2.41
2023-02-16T00:16:45.930Z,2.38
2023-02-16T00:19:24.948Z,2.37
2023-02-16T00:21:56.666Z,2.39
2023-02-16T00:24:25.683Z,2.43
2023-02-16T00:26:55.313Z,2.44
2023-02-16T00:29:27.277Z,2.52
2023-02-16T00:31:56.928Z,2.58
2023-02-16T00:34:35.197Z,2.52
2023-02-16T00:37:05.481Z,2.48
2023-02-16T00:39:34.394Z,2.49
2023-02-16T00:42:05.591Z,2.50
2023-02-16T00:44:37.454Z,2.52
2023-02-16T00:47:19.126Z,2.49
2023-02-16T00:49:50.022Z,2.44
2023-02-16T00:52:33.588Z,2.39
2023-02-16T00:55:03.959Z,2.36
2023-02-16T00:57:36.190Z,2.32
2023-02-16T01:00:14.258Z,2.29
2023-02-16T01:02:42.827Z,2.23
2023-02-16T01:05:13.584Z,2.12
2023-02-16T01:07:59.259Z,2.09
2023-02-16T01:10:46.940Z,2.16
2023-02-16T01:13:16.109Z,2.13
2023-02-16T01:15:44.790Z,2.11
2023-02-16T01:18:14.913Z,2.08
2023-02-16T01:20:45.141Z,2.06
2023-02-16T01:23:13.297Z,2.07
2023-02-16T01:25:42.322Z,2.05
2023-02-16T01:28:19.777Z,1.97
2023-02-16T01:30:47.877Z,1.98
2023-02-16T01:33:16.051Z,1.98
2023-02-16T01:35:46.894Z,1.94
2023-02-16T01:38:19.801Z,1.88
2023-02-16T01:40:56.870Z,1.79
2023-02-16T01:43:30.324Z,1.73
2023-02-16T01:46:04.051Z,1.71
2023-02-16T01:48:33.525Z,1.62
2023-02-16T01:51:08.541Z,1.61
2023-02-16T01:53:41.264Z,1.55
2023-02-16T01:56:21.355Z,1.60
2023-02-16T01:58:53.791Z,1.55
2023-02-16T02:01:50.338Z,1.48
2023-02-16T02:04:48.646Z,1.43
2023-02-16T02:07:25.562Z,1.38
2023-02-16T02:10:03.314Z,1.28
2023-02-16T02:12:41.609Z,1.33
2023-02-16T02:15:11.711Z,1.27
2023-02-16T02:17:40.382Z,1.22
2023-02-16T02:20:17.662Z,1.12
2023-02-16T02:23:34.241Z,1.06
2023-02-16T02:26:44.657Z,1.09
2023-02-16T02:29:56.166Z,1.01
2023-02-16T02:32:34.641Z,0.96
2023-02-16T02:35:15.392Z,0.89
2023-02-16T02:37:51.551Z,0.89
2023-02-16T02:40:31.631Z,0.92
2023-02-16T02:43:08.848Z,0.79
2023-02-16T02:45:45.990Z,0.77
2023-02-16T02:48:14.056Z,0.59
2023-02-16T02:51:04.513Z,0.56
2023-02-16T02:53:33.260Z,0.45
2023-02-16T02:56:21.366Z,0.35
2023-02-16T02:59:11.925Z,0.34
2023-02-16T03:01:45.248Z,0.34
2023-02-16T03:04:17.160Z,0.29
2023-02-16T03:06:50.164Z,0.26
2023-02-16T03:09:19.183Z,0.21
2023-02-16T03:12:08.654Z,0.18
2023-02-16T03:14:40.825Z,0.15
2023-02-16T03:17:31.633Z,0.04
2023-02-16T03:20:19.094Z,0.06
2023-02-16T03:23:04.901Z,0.21
2023-02-16T03:25:53.218Z,0.19
2023-02-16T03:28:42.030Z,0.22
2023-02-16T03:31:13.426Z,0.18
2023-02-16T03:33:44.018Z,0.11
2023-02-16T03:36:12.526Z,0.07
2023-02-16T03:38:40.996Z,0.07
2023-02-16T03:41:09.244Z,0.06
2023-02-16T03:43:38.878Z,-0.02
2023-02-16T03:46:07.111Z,-0.10
2023-02-16T03:48:35.276Z,-0.13
2023-02-16T03:51:05.133Z,-0.21
2023-02-16T03:53:33.520Z,-0.23
2023-02-16T03:56:01.580Z,-0.21
2023-02-16T03:58:29.669Z,-0.22
2023-02-16T04:00:59.070Z,-0.25
2023-02-16T04:03:27.322Z,-0.26
2023-02-16T04:05:56.490Z,-0.17
2023-02-16T04:08:26.168Z,-0.07
2023-02-16T04:10:56.944Z,-0.10
2023-02-16T04:13:24.007Z,-0.12
2023-02-16T04:15:52.066Z,0.07
2023-02-16T04:18:20.149Z,0.07
2023-02-16T04:20:48.135Z,0.05
2023-02-16T04:23:16.178Z,0.05
2023-02-16T04:25:45.793Z,0.05
2023-02-16T04:28:14.259Z,-0.08
2023-02-16T04:30:42.487Z,-0.23
2023-02-16T04:33:10.863Z,-0.33
2023-02-16T04:35:39.057Z,-0.42
2023-02-16T04:38:07.138Z,-0.48
2023-02-16T04:40:35.279Z,-0.53
2023-02-16T04:43:05.498Z,-0.51
2023-02-16T04:45:33.728Z,-0.58
2023-02-16T04:48:01.728Z,-0.59
2023-02-16T04:50:29.833Z,-0.56
2023-02-16T04:52:57.996Z,-0.55
2023-02-16T04:55:26.187Z,-0.60
2023-02-16T04:57:54.436Z,-0.66
2023-02-16T05:00:24.057Z,-0.72
2023-02-16T05:02:52.202Z,-0.77
2023-02-16T05:05:20.318Z,-0.77
2023-02-16T05:07:48.303Z,-0.80
2023-02-16T05:10:16.399Z,-0.83
2023-02-16T05:13:01.971Z,-0.78
2023-02-16T05:15:31.899Z,-0.78
2023-02-16T05:17:59.945Z,-0.82
2023-02-16T05:20:41.926Z,-0.85
2023-02-16T05:23:10.060Z,-0.91
2023-02-16T05:25:38.129Z,-0.96
2023-02-16T05:28:06.543Z,-0.96
2023-02-16T05:30:36.022Z,-0.92
2023-02-16T05:33:04.092Z,-0.93
2023-02-16T05:35:32.206Z,-0.94
2023-02-16T05:38:00.283Z,-0.95
2023-02-16T05:40:28.749Z,-0.95
2023-02-16T05:42:57.104Z,-0.94
2023-02-16T05:45:25.162Z,-0.90
2023-02-16T05:47:54.732Z,-0.84
2023-02-16T05:50:22.861Z,-0.82
2023-02-16T05:52:50.914Z,-0.79
2023-02-16T05:55:19.577Z,-0.77
2023-02-16T05:57:47.961Z,-0.74
2023-02-16T06:00:17.373Z,-0.67
2023-02-16T06:02:45.660Z,-0.61
2023-02-16T06:05:15.272Z,-0.57
2023-02-16T06:07:43.387Z,-0.54
2023-02-16T06:10:11.411Z,-0.49
2023-02-16T06:12:39.515Z,-0.37
2023-02-16T06:15:08.004Z,-0.24
2023-02-16T06:17:36.187Z,-0.11
2023-02-16T06:20:04.969Z,0.00
2023-02-16T06:22:34.517Z,0.06
2023-02-16T06:25:02.632Z,0.11
2023-02-16T06:27:31.429Z,0.22
2023-02-16T06:29:59.502Z,0.33
2023-02-16T06:32:27.938Z,0.42
2023-02-16T06:34:56.187Z,0.50
2023-02-16T06:37:25.492Z,0.57
2023-02-16T06:39:55.109Z,0.61
2023-02-16T06:42:23.183Z,0.80
2023-02-16T06:44:51.427Z,0.85
2023-02-16T06:47:19.508Z,1.00
2023-02-16T06:49:47.960Z,1.10
2023-02-16T06:52:16.261Z,1.40
2023-02-16T06:54:44.846Z,1.33
2023-02-16T06:57:14.257Z,1.35
2023-02-16T06:59:42.398Z,1.51
2023-02-16T07:02:12.897Z,1.49
2023-02-16T07:04:40.911Z,1.69
2023-02-16T07:07:09.377Z,1.74
2023-02-16T07:09:37.794Z,1.81
2023-02-16T07:12:07.359Z,1.74
2023-02-16T07:14:36.903Z,1.65
2023-02-16T07:17:05.014Z,1.66
2023-02-16T07:19:33.857Z,1.68
2023-02-16T07:22:02.723Z,1.73
2023-02-16T07:24:30.863Z,1.73
2023-02-16T07:26:59.009Z,1.81
2023-02-16T07:29:27.287Z,1.85
2023-02-16T07:31:57.861Z,1.97
2023-02-16T07:34:26.004Z,2.09
2023-02-16T07:36:54.080Z,2.20
2023-02-16T07:39:22.141Z,2.35
2023-02-16T07:41:50.903Z,2.40
2023-02-16T07:44:19.049Z,2.50
2023-02-16T07:46:47.711Z,2.59
2023-02-16T07:49:17.281Z,2.86
2023-02-16T07:51:45.416Z,3.06
2023-02-16T07:54:13.520Z,3.12
2023-02-16T07:56:41.645Z,3.06
2023-02-16T07:59:09.785Z,3.08
2023-02-16T08:01:40.091Z,3.08
2023-02-16T08:04:08.379Z,3.26
2023-02-16T08:06:38.121Z,3.40
2023-02-16T08:09:06.654Z,3.60
2023-02-16T08:11:34.787Z,3.66
2023-02-16T08:14:03.144Z,3.80
2023-02-16T08:16:31.563Z,3.87
2023-02-16T08:19:01.573Z,3.98
2023-02-16T08:21:31.646Z,3.98
2023-02-16T08:24:03.029Z,4.05
2023-02-16T08:26:35.563Z,4.15
2023-02-16T08:29:03.804Z,4.28
2023-02-16T08:31:35.288Z,4.32
2023-02-16T08:34:04.454Z,4.36
2023-02-16T08:36:34.696Z,4.35
2023-02-16T08:39:07.190Z,4.44
2023-02-16T08:41:38.068Z,4.66
2023-02-16T08:44:07.842Z,4.95
2023-02-16T08:46:37.491Z,5.11
2023-02-16T08:49:05.653Z,5.18
2023-02-16T08:51:35.967Z,5.28
2023-02-16T08:54:08.590Z,5.18
2023-02-16T08:56:37.207Z,5.24
2023-02-16T08:59:05.335Z,5.29
2023-02-16T09:01:33.576Z,5.34
2023-02-16T09:04:01.721Z,5.60
2023-02-16T09:06:30.428Z,5.53
2023-02-16T09:08:59.255Z,5.53
2023-02-16T09:11:28.860Z,5.54
2023-02-16T09:13:57.591Z,5.72
2023-02-16T09:16:28.135Z,5.80
2023-02-16T09:18:57.731Z,6.03
2023-02-16T09:21:27.025Z,6.21
2023-02-16T09:23:58.365Z,6.21
2023-02-16T09:26:29.346Z,6.33
2023-02-16T09:28:58.825Z,6.50
2023-02-16T09:31:29.429Z,6.46
2023-02-16T09:34:01.190Z,6.50
2023-02-16T09:36:29.789Z,6.65
2023-02-16T09:38:58.499Z,6.65
2023-02-16T09:41:37.612Z,6.72
2023-02-16T09:44:15.871Z,6.83
2023-02-16T09:46:44.486Z,7.10
2023-02-16T09:49:22.488Z,7.17
2023-02-16T09:51:55.570Z,7.31
2023-02-16T09:54:34.846Z,7.34
2023-02-16T09:57:13.612Z,7.38
2023-02-16T09:59:49.311Z,7.62
2023-02-16T10:02:45.901Z,7.72
2023-02-16T10:05:21.409Z,7.96
2023-02-16T10:07:58.864Z,7.94
2023-02-16T10:10:31.781Z,7.94
2023-02-16T10:13:06.248Z,8.03
2023-02-16T10:15:40.274Z,8.07
2023-02-16T10:18:15.298Z,8.11
2023-02-16T10:20:49.631Z,8.31
2023-02-16T10:23:38.253Z,8.31
2023-02-16T10:26:15.499Z,8.26
2023-02-16T10:28:48.320Z,8.34
2023-02-16T10:31:25.147Z,8.39
2023-02-16T10:34:08.280Z,8.42
2023-02-16T10:36:51.983Z,8.51
2023-02-16T10:39:25.929Z,8.54
2023-02-16T10:42:03.684Z,8.65
2023-02-16T10:44:40.382Z,8.60
2023-02-16T10:47:24.030Z,8.45
2023-02-16T10:49:53.138Z,8.35
2023-02-16T10:52:22.248Z,8.51
2023-02-16T10:54:51.014Z,8.64
2023-02-16T10:57:27.543Z,8.74
2023-02-16T11:00:00.824Z,8.96
2023-02-16T11:02:36.698Z,8.90
2023-02-16T11:05:36.106Z,8.93
2023-02-16T11:08:05.221Z,9.06
2023-02-16T11:10:40.503Z,9.13
2023-02-16T11:13:19.401Z,9.18
2023-02-16T11:15:54.972Z,9.16
2023-02-16T11:18:33.148Z,9.14
2023-02-16T11:21:03.536Z,9.34
2023-02-16T11:23:32.986Z,9.38
2023-02-16T11:26:04.220Z,9.56
2023-02-16T11:28:35.415Z,9.65
2023-02-16T11:31:17.914Z,9.63
2023-02-16T11:33:58.868Z,9.59
2023-02-16T11:36:33.819Z,9.58
2023-02-16T11:39:07.170Z,9.67
2023-02-16T11:41:36.939Z,9.79
2023-02-16T11:44:05.631Z,9.94
2023-02-16T11:46:42.599Z,9.86
2023-02-16T11:49:31.379Z,9.84
2023-02-16T11:52:00.813Z,9.83
2023-02-16T11:54:28.917Z,9.76
2023-02-16T11:57:08.538Z,9.92
2023-02-16T11:59:39.186Z,9.93
2023-02-16T12:02:35.192Z,9.92
2023-02-16T12:05:20.746Z,10.04
2023-02-16T12:08:06.596Z,10.03
2023-02-16T12:10:44.435Z,10.16
2023-02-16T12:13:23.426Z,10.17
2023-02-16T12:16:00.977Z,10.18
2023-02-16T12:18:38.986Z,10.09
2023-02-16T12:21:25.098Z,10.05
2023-02-16T12:24:05.055Z,10.03
2023-02-16T12:26:41.668Z,10.09
2023-02-16T12:29:25.018Z,10.23
2023-02-16T12:32:13.861Z,10.14
2023-02-16T12:34:58.844Z,10.17
2023-02-16T12:37:36.066Z,10.27
2023-02-16T12:40:19.125Z,10.29
2023-02-16T12:43:04.307Z,10.34
2023-02-16T12:45:37.630Z,10.40
2023-02-16T12:48:31.568Z,10.45
2023-02-16T12:51:04.964Z,10.55
2023-02-16T12:53:44.723Z,10.55
2023-02-16T12:56:19.523Z,10.62
2023-02-16T12:58:53.561Z,10.61
2023-02-16T13:01:26.171Z,10.71
2023-02-16T13:03:58.693Z,10.68
2023-02-16T13:06:34.105Z,10.68
2023-02-16T13:09:13.654Z,10.74
2023-02-16T13:11:48.062Z,10.68
2023-02-16T13:14:21.533Z,10.63
2023-02-16T13:16:57.108Z,10.67
2023-02-16T13:19:25.341Z,10.64
2023-02-16T13:22:24.424Z,10.73
2023-02-16T13:25:05.504Z,10.82
2023-02-16T13:27:46.747Z,10.82
2023-02-16T13:31:07.374Z,10.94
2023-02-16T13:33:51.817Z,10.89
2023-02-16T13:36:37.308Z,10.90
2023-02-16T13:39:32.173Z,10.95
2023-02-16T13:42:36.074Z,10.88
2023-02-16T13:45:11.788Z,10.91
2023-02-16T13:47:42.137Z,10.87
2023-02-16T13:50:28.221Z,10.85
2023-02-16T13:52:58.763Z,10.90
2023-02-16T13:55:32.246Z,10.86
2023-02-16T13:58:05.858Z,10.90
2023-02-16T14:00:38.323Z,10.91
2023-02-16T14:03:13.422Z,10.94
2023-02-16T14:05:43.917Z,10.89
2023-02-16T14:08:21.274Z,10.95
2023-02-16T14:11:21.844Z,11.02
2023-02-16T14:13:52.242Z,10.96
2023-02-16T14:16:34.618Z,10.97
2023-02-16T14:19:19.703Z,10.98
2023-02-16T14:21:50.440Z,10.97
2023-02-16T14:24:32.984Z,11.14
2023-02-16T14:27:04.251Z,10.99
2023-02-16T14:29:37.862Z,10.99
2023-02-16T14:32:18.315Z,10.90
2023-02-16T14:34:57.242Z,10.92
2023-02-16T14:37:36.894Z,10.85
2023-02-16T14:40:16.320Z,10.74
2023-02-16T14:43:05.012Z,10.68
2023-02-16T14:46:00.871Z,10.66
2023-02-16T14:48:53.115Z,10.66
2023-02-16T14:51:45.459Z,10.69
2023-02-16T14:54:49.643Z,10.77
2023-02-16T14:57:23.626Z,10.79
2023-02-16T14:59:58.300Z,10.73
2023-02-16T15:02:33.078Z,10.79
2023-02-16T15:05:18.004Z,10.74
2023-02-16T15:07:50.601Z,10.64
2023-02-16T15:10:26.861Z,10.57
2023-02-16T15:12:56.371Z,10.54
2023-02-16T15:15:33.281Z,10.54
2023-02-16T15:18:01.908Z,10.55
2023-02-16T15:20:34.214Z,10.54
2023-02-16T15:23:04.254Z,10.49
2023-02-16T15:25:35.214Z,10.49
2023-02-16T15:28:06.044Z,10.41
2023-02-16T15:30:37.091Z,10.39
2023-02-16T15:33:08.017Z,10.33
2023-02-16T15:35:39.214Z,10.28
2023-02-16T15:38:19.902Z,10.19
2023-02-16T15:40:49.101Z,10.10
2023-02-16T15:43:27.040Z,10.12
2023-02-16T15:45:56.530Z,10.07
2023-02-16T15:48:29.425Z,10.07
2023-02-16T15:51:02.754Z,10.03
2023-02-16T15:53:58.109Z,9.96
2023-02-16T15:56:39.337Z,9.92
2023-02-16T15:59:23.692Z,9.85
2023-02-16T16:02:00.578Z,9.70
2023-02-16T16:04:29.820Z,9.60
2023-02-16T16:07:00.117Z,9.52
2023-02-16T16:09:30.451Z,9.50
2023-02-16T16:12:01.099Z,9.42
2023-02-16T16:14:30.901Z,9.36
2023-02-16T16:17:21.155Z,9.38
2023-02-16T16:19:50.542Z,9.27
2023-02-16T16:22:33.161Z,9.19
2023-02-16T16:25:02.195Z,9.10
2023-02-16T16:27:32.601Z,9.07
2023-02-16T16:30:27.729Z,9.05
2023-02-16T16:33:07.748Z,9.01
2023-02-16T16:35:38.512Z,9.00
2023-02-16T16:38:10.338Z,8.91
2023-02-16T16:40:41.031Z,8.85
2023-02-16T16:43:17.670Z,8.78
2023-02-16T16:45:47.842Z,8.73
2023-02-16T16:48:21.644Z,8.68
2023-02-16T16:50:50.933Z,8.57
2023-02-16T16:53:45.375Z,8.41
2023-02-16T16:56:16.128Z,8.29
2023-02-16T16:58:44.922Z,8.15
2023-02-16T17:01:14.036Z,8.03
2023-02-16T17:03:43.910Z,7.91
2023-02-16T17:06:14.171Z,7.79
2023-02-16T17:08:42.930Z,7.69
2023-02-16T17:11:15.287Z,7.58
2023-02-16T17:13:43.867Z,7.48
2023-02-16T17:16:18.143Z,7.39
2023-02-16T17:18:47.671Z,7.34
2023-02-16T17:21:16.521Z,7.37
2023-02-16T17:23:52.546Z,7.39
2023-02-16T17:26:21.978Z,7.40
2023-02-16T17:28:50.426Z,7.37
2023-02-16T17:31:18.599Z,7.34
2023-02-16T17:33:48.288Z,7.28
2023-02-16T17:36:17.430Z,7.22
2023-02-16T17:38:46.286Z,7.15
2023-02-16T17:41:22.158Z,7.07
2023-02-16T17:43:50.576Z,7.00
2023-02-16T17:46:21.621Z,6.92
2023-02-16T17:48:53.582Z,6.86
2023-02-16T17:51:23.958Z,6.80
2023-02-16T17:53:53.543Z,6.74
2023-02-16T17:56:25.350Z,6.65
2023-02-16T17:58:54.707Z,6.60
2023-02-16T18:01:23.840Z,6.56
2023-02-16T18:03:55.177Z,6.50
2023-02-16T18:06:28.888Z,6.44
2023-02-16T18:08:57.476Z,6.39
2023-02-16T18:11:25.696Z,6.33
2023-02-16T18:13:54.051Z,6.27
2023-02-16T18:16:28.024Z,6.27
2023-02-16T18:19:01.019Z,6.30
2023-02-16T18:21:29.162Z,6.51
2023-02-16T18:23:57.331Z,6.74
2023-02-16T18:26:25.717Z,6.63
2023-02-16T18:28:53.981Z,6.48
2023-02-16T18:31:22.143Z,6.28
2023-02-16T18:33:51.244Z,6.27
2023-02-16T18:36:21.057Z,6.16
2023-02-16T18:38:49.773Z,6.03
2023-02-16T18:41:33.177Z,5.96
2023-02-16T18:44:01.597Z,5.85
2023-02-16T18:46:30.277Z,5.94
2023-02-16T18:48:58.718Z,5.92
2023-02-16T18:51:30.122Z,5.87
2023-02-16T18:53:58.611Z,5.74
2023-02-16T18:56:27.641Z,5.69
2023-02-16T18:58:59.398Z,5.53
2023-02-16T19:01:33.778Z,5.47
2023-02-16T19:04:03.543Z,5.49
2023-02-16T19:06:34.259Z,5.44
2023-02-16T19:09:04.163Z,5.46
2023-02-16T19:11:33.504Z,5.63
2023-02-16T19:14:02.310Z,5.52
2023-02-16T19:16:31.119Z,5.58
2023-02-16T19:19:03.635Z,5.38
2023-02-16T19:21:34.072Z,5.24
2023-02-16T19:24:04.217Z,5.26
2023-02-16T19:26:33.448Z,5.24
2023-02-16T19:29:06.797Z,5.11
2023-02-16T19:31:36.001Z,5.21
2023-02-16T19:34:04.669Z,5.30
2023-02-16T19:36:36.512Z,5.21
2023-02-16T19:39:05.987Z,5.14
2023-02-16T19:41:37.687Z,5.07
2023-02-16T19:44:07.311Z,5.01
2023-02-16T19:46:38.385Z,4.90
2023-02-16T19:49:07.450Z,4.92
2023-02-16T19:51:37.232Z,4.97
2023-02-16T19:54:05.524Z,4.98
2023-02-16T19:56:33.730Z,4.96
2023-02-16T19:59:02.743Z,4.91
2023-02-16T20:01:31.023Z,4.80
2023-02-16T20:04:00.316Z,4.72
2023-02-16T20:06:32.314Z,4.63
2023-02-16T20:09:02.394Z,4.64
2023-02-16T20:11:31.326Z,4.61
2023-02-16T20:13:59.972Z,4.48
2023-02-16T20:16:30.522Z,4.37
2023-02-16T20:18:59.242Z,4.23
2023-02-16T20:21:29.630Z,4.35
2023-02-16T20:24:00.083Z,4.32
2023-02-16T20:26:34.456Z,4.37
2023-02-16T20:29:03.663Z,4.25
2023-02-16T20:31:37.536Z,4.21
2023-02-16T20:34:07.402Z,4.16
2023-02-16T20:36:36.008Z,4.07
2023-02-16T20:39:05.400Z,3.95
2023-02-16T20:41:35.000Z,3.81
2023-02-16T20:44:03.900Z,3.71
2023-02-16T20:46:32.471Z,3.70
2023-02-16T20:49:00.696Z,3.65
2023-02-16T20:51:28.907Z,3.57
2023-02-16T20:53:57.076Z,3.49
2023-02-16T20:56:26.839Z,3.34
2023-02-16T20:58:58.607Z,3.23
2023-02-16T21:01:29.584Z,3.12
2023-02-16T21:03:58.853Z,3.03
2023-02-16T21:06:28.519Z,2.96
2023-02-16T21:08:56.908Z,2.94
2023-02-16T21:11:25.636Z,2.88
2023-02-16T21:13:53.778Z,2.76
2023-02-16T21:16:23.735Z,2.63
2023-02-16T21:18:52.384Z,2.54
2023-02-16T21:21:20.554Z,2.46
2023-02-16T21:23:51.261Z,2.46
2023-02-16T21:26:21.245Z,2.51
2023-02-16T21:28:50.305Z,2.52
2023-02-16T21:31:20.866Z,2.54
2023-02-16T21:33:51.102Z,2.41
2023-02-16T21:36:21.051Z,2.36
2023-02-16T21:38:49.826Z,2.32
2023-02-16T21:41:25.778Z,2.26
2023-02-16T21:43:55.927Z,2.27
2023-02-16T21:46:24.274Z,2.27
2023-02-16T21:48:52.754Z,2.26
2023-02-16T21:51:22.298Z,2.28
2023-02-16T21:53:50.410Z,2.43
2023-02-16T21:56:29.353Z,2.38
2023-02-16T21:58:57.559Z,2.33
2023-02-16T22:01:28.761Z,2.27
2023-02-16T22:04:00.386Z,2.18
2023-02-16T22:06:32.269Z,2.14
2023-02-16T22:09:00.854Z,2.14
2023-02-16T22:11:29.154Z,2.08
2023-02-16T22:13:59.090Z,2.05
2023-02-16T22:16:29.616Z,2.07
2023-02-16T22:19:00.557Z,2.08
2023-02-16T22:21:29.825Z,2.03
2023-02-16T22:24:00.845Z,1.98
2023-02-16T22:26:31.226Z,1.93
2023-02-16T22:28:59.957Z,1.92
2023-02-16T22:31:29.040Z,1.98
2023-02-16T22:33:59.294Z,1.98
2023-02-16T22:36:28.022Z,1.99
2023-02-16T22:38:56.553Z,1.93
2023-02-16T22:41:26.075Z,1.87
2023-02-16T22:43:55.533Z,1.79
2023-02-16T22:46:25.401Z,1.77
2023-02-16T22:48:53.708Z,1.71
2023-02-16T22:51:23.325Z,1.65
2023-02-16T22:53:51.528Z,1.64
2023-02-16T22:56:20.937Z,1.64
2023-02-16T22:58:49.200Z,1.62
2023-02-16T23:01:19.427Z,1.62
2023-02-16T23:03:48.824Z,1.62
2023-02-16T23:06:19.835Z,1.62
2023-02-16T23:08:53.766Z,1.56
2023-02-16T23:11:22.216Z,1.49
2023-02-16T23:13:50.588Z,1.50
2023-02-16T23:16:21.015Z,1.54
2023-02-16T23:18:50.266Z,1.63
2023-02-16T23:21:20.245Z,1.60
2023-02-16T23:23:51.320Z,1.53
2023-02-16T23:26:20.869Z,1.51
2023-02-16T23:28:51.887Z,1.46
2023-02-16T23:31:20.505Z,1.39
2023-02-16T23:33:49.499Z,1.36
2023-02-16T23:36:17.961Z,1.36
2023-02-16T23:38:46.038Z,1.31
2023-02-16T23:41:16.492Z,1.22
2023-02-16T23:43:44.574Z,1.23
2023-02-16T23:46:12.941Z,1.32
2023-02-16T23:48:40.966Z,1.29
2023-02-16T23:51:11.721Z,1.25
2023-02-16T23:53:40.547Z,1.25
2023-02-16T23:56:10.226Z,1.24
2023-02-16T23:58:42.317Z,1.21
